sensor_id;sensor_type;location;lat;lon;timestamp;pressure;altitude;pressure_sealevel;temperature;humidity
69239;BME280;56349;51.816;-0.026;2023-06-22T00:01:34;101237.90;;;28.43;31.10
69239;BME280;56349;51.816;-0.026;2023-06-22T00:04:00;101239.26;;;27.91;31.14
69239;BME280;56349;51.816;-0.026;2023-06-22T00:06:26;101239.48;;;28.38;31.19
69239;BME280;56349;51.816;-0.026;2023-06-22T00:08:52;101240.59;;;28.33;31.24
69239;BME280;56349;51.816;-0.026;2023-06-22T00:11:18;101245.65;;;28.30;31.27
69239;BME280;56349;51.816;-0.026;2023-06-22T00:13:44;101254.69;;;28.27;31.30
69239;BME280;56349;51.816;-0.026;2023-06-22T00:16:10;101258.79;;;28.26;31.33
69239;BME280;56349;51.816;-0.026;2023-06-22T00:18:36;101262.61;;;28.24;31.37
69239;BME280;56349;51.816;-0.026;2023-06-22T00:21:02;101257.23;;;28.23;31.39
69239;BME280;56349;51.816;-0.026;2023-06-22T00:23:28;101254.21;;;28.21;31.41
69239;BME280;56349;51.816;-0.026;2023-06-22T00:25:54;101253.43;;;28.18;31.46
69239;BME280;56349;51.816;-0.026;2023-06-22T00:28:20;101254.62;;;28.16;31.49
69239;BME280;56349;51.816;-0.026;2023-06-22T00:30:48;101256.48;;;27.90;31.53
69239;BME280;56349;51.816;-0.026;2023-06-22T00:33:11;101253.45;;;28.11;31.55
69239;BME280;56349;51.816;-0.026;2023-06-22T00:35:37;101248.42;;;28.10;31.56
69239;BME280;56349;51.816;-0.026;2023-06-22T00:38:03;101250.70;;;28.07;31.60
69239;BME280;56349;51.816;-0.026;2023-06-22T00:40:31;101256.97;;;28.03;31.64
69239;BME280;56349;51.816;-0.026;2023-06-22T00:42:55;101259.81;;;27.78;31.69
69239;BME280;56349;51.816;-0.026;2023-06-22T00:45:20;101261.94;;;27.98;31.72
69239;BME280;56349;51.816;-0.026;2023-06-22T00:47:46;101263.40;;;27.99;31.71
69239;BME280;56349;51.816;-0.026;2023-06-22T00:50:16;101263.30;;;28.21;31.76
69239;BME280;56349;51.816;-0.026;2023-06-22T00:52:38;101260.46;;;27.91;31.81
69239;BME280;56349;51.816;-0.026;2023-06-22T00:55:05;101263.59;;;27.90;31.83
69239;BME280;56349;51.816;-0.026;2023-06-22T00:57:30;101263.74;;;27.89;31.85
69239;BME280;56349;51.816;-0.026;2023-06-22T00:59:55;101257.90;;;27.88;31.86
69239;BME280;56349;51.816;-0.026;2023-06-22T01:02:21;101257.58;;;27.87;31.88
69239;BME280;56349;51.816;-0.026;2023-06-22T01:04:46;101256.64;;;27.85;31.90
69239;BME280;56349;51.816;-0.026;2023-06-22T01:07:19;101258.27;;;27.83;31.93
69239;BME280;56349;51.816;-0.026;2023-06-22T01:09:44;101258.85;;;27.80;31.96
69239;BME280;56349;51.816;-0.026;2023-06-22T01:12:04;101257.53;;;27.79;31.99
69239;BME280;56349;51.816;-0.026;2023-06-22T01:14:32;101257.29;;;28.04;32.00
69239;BME280;56349;51.816;-0.026;2023-06-22T01:16:54;101257.65;;;27.74;32.05
69239;BME280;56349;51.816;-0.026;2023-06-22T01:19:29;101255.48;;;27.73;32.06
69239;BME280;56349;51.816;-0.026;2023-06-22T01:21:45;101255.62;;;27.71;32.10
69239;BME280;56349;51.816;-0.026;2023-06-22T01:24:16;101255.38;;;27.70;32.12
69239;BME280;56349;51.816;-0.026;2023-06-22T01:26:40;101253.16;;;28.17;32.15
69239;BME280;56349;51.816;-0.026;2023-06-22T01:29:01;101256.23;;;27.69;32.15
69239;BME280;56349;51.816;-0.026;2023-06-22T01:31:27;101252.51;;;27.71;32.15
69239;BME280;56349;51.816;-0.026;2023-06-22T01:33:54;101252.57;;;27.71;32.15
69239;BME280;56349;51.816;-0.026;2023-06-22T01:36:18;101252.39;;;27.69;32.17
69239;BME280;56349;51.816;-0.026;2023-06-22T01:38:44;101249.57;;;27.66;32.20
69239;BME280;56349;51.816;-0.026;2023-06-22T01:41:10;101248.44;;;27.65;32.23
69239;BME280;56349;51.816;-0.026;2023-06-22T01:43:35;101244.37;;;27.63;32.25
69239;BME280;56349;51.816;-0.026;2023-06-22T01:46:02;101241.72;;;27.62;32.27
69239;BME280;56349;51.816;-0.026;2023-06-22T01:48:27;101244.06;;;27.59;32.31
69239;BME280;56349;51.816;-0.026;2023-06-22T01:50:53;101245.27;;;27.56;32.35
69239;BME280;56349;51.816;-0.026;2023-06-22T01:53:18;101243.63;;;27.53;32.39
69239;BME280;56349;51.816;-0.026;2023-06-22T01:55:44;101242.43;;;27.52;32.41
69239;BME280;56349;51.816;-0.026;2023-06-22T01:58:10;101246.39;;;27.51;32.42
69239;BME280;56349;51.816;-0.026;2023-06-22T02:00:38;101252.41;;;27.48;32.46
69239;BME280;56349;51.816;-0.026;2023-06-22T02:03:05;101253.59;;;27.49;32.47
69239;BME280;56349;51.816;-0.026;2023-06-22T02:05:31;101253.46;;;27.48;32.49
69239;BME280;56349;51.816;-0.026;2023-06-22T02:07:56;101256.98;;;27.46;32.50
69239;BME280;56349;51.816;-0.026;2023-06-22T02:10:20;101255.13;;;27.46;32.53
69239;BME280;56349;51.816;-0.026;2023-06-22T02:12:43;101252.25;;;27.44;32.54
69239;BME280;56349;51.816;-0.026;2023-06-22T02:15:09;101247.30;;;27.40;32.59
69239;BME280;56349;51.816;-0.026;2023-06-22T02:17:33;101243.17;;;27.37;32.62
69239;BME280;56349;51.816;-0.026;2023-06-22T02:19:58;101242.04;;;27.36;32.64
69239;BME280;56349;51.816;-0.026;2023-06-22T02:22:25;101242.05;;;27.35;32.66
69239;BME280;56349;51.816;-0.026;2023-06-22T02:24:50;101240.33;;;27.34;32.67
69239;BME280;56349;51.816;-0.026;2023-06-22T02:27:16;101241.12;;;27.34;32.68
69239;BME280;56349;51.816;-0.026;2023-06-22T02:29:42;101239.78;;;27.33;32.70
69239;BME280;56349;51.816;-0.026;2023-06-22T02:32:08;101241.83;;;27.33;32.70
69239;BME280;56349;51.816;-0.026;2023-06-22T02:34:34;101244.33;;;27.59;32.71
69239;BME280;56349;51.816;-0.026;2023-06-22T02:36:59;101245.48;;;27.32;32.72
69239;BME280;56349;51.816;-0.026;2023-06-22T02:39:24;101245.28;;;27.33;32.73
69239;BME280;56349;51.816;-0.026;2023-06-22T02:41:52;101242.56;;;27.32;32.73
69239;BME280;56349;51.816;-0.026;2023-06-22T02:44:17;101242.94;;;27.31;32.74
69239;BME280;56349;51.816;-0.026;2023-06-22T02:46:42;101244.25;;;27.29;32.76
69239;BME280;56349;51.816;-0.026;2023-06-22T02:49:07;101243.13;;;27.27;32.80
69239;BME280;56349;51.816;-0.026;2023-06-22T02:51:34;101245.34;;;27.53;32.81
69239;BME280;56349;51.816;-0.026;2023-06-22T02:53:59;101250.82;;;27.73;32.83
69239;BME280;56349;51.816;-0.026;2023-06-22T02:56:25;101251.92;;;27.22;32.85
69239;BME280;56349;51.816;-0.026;2023-06-22T02:58:51;101250.82;;;27.22;32.87
69239;BME280;56349;51.816;-0.026;2023-06-22T03:01:16;101255.84;;;27.48;32.87
69239;BME280;56349;51.816;-0.026;2023-06-22T03:03:42;101257.86;;;27.68;32.90
69239;BME280;56349;51.816;-0.026;2023-06-22T03:06:08;101256.31;;;27.18;32.90
69239;BME280;56349;51.816;-0.026;2023-06-22T03:08:34;101255.57;;;27.42;32.94
69239;BME280;56349;51.816;-0.026;2023-06-22T03:11:00;101253.50;;;27.39;32.96
69239;BME280;56349;51.816;-0.026;2023-06-22T03:13:27;101252.74;;;27.11;32.99
69239;BME280;56349;51.816;-0.026;2023-06-22T03:15:52;101252.85;;;27.09;33.01
69239;BME280;56349;51.816;-0.026;2023-06-22T03:18:18;101253.44;;;27.08;33.03
69239;BME280;56349;51.816;-0.026;2023-06-22T03:20:44;101252.41;;;27.08;33.03
69239;BME280;56349;51.816;-0.026;2023-06-22T03:23:10;101248.26;;;27.07;33.04
69239;BME280;56349;51.816;-0.026;2023-06-22T03:25:36;101244.02;;;27.31;33.06
69239;BME280;56349;51.816;-0.026;2023-06-22T03:28:02;101240.01;;;27.30;33.07
69239;BME280;56349;51.816;-0.026;2023-06-22T03:30:28;101237.72;;;27.28;33.11
69239;BME280;56349;51.816;-0.026;2023-06-22T03:32:54;101234.69;;;27.29;33.15
69239;BME280;56349;51.816;-0.026;2023-06-22T03:35:20;101236.54;;;27.09;33.17
69239;BME280;56349;51.816;-0.026;2023-06-22T03:37:46;101237.93;;;27.45;33.15
69239;BME280;56349;51.816;-0.026;2023-06-22T03:40:12;101235.99;;;27.33;33.09
69239;BME280;56349;51.816;-0.026;2023-06-22T03:42:37;101232.00;;;27.53;32.96
69239;BME280;56349;51.816;-0.026;2023-06-22T03:45:04;101232.34;;;27.73;32.79
69239;BME280;56349;51.816;-0.026;2023-06-22T03:47:29;101229.89;;;27.93;32.61
69239;BME280;56349;51.816;-0.026;2023-06-22T03:49:55;101223.48;;;28.11;32.34
69239;BME280;56349;51.816;-0.026;2023-06-22T03:52:21;101222.96;;;28.26;32.13
69239;BME280;56349;51.816;-0.026;2023-06-22T03:54:46;101224.68;;;28.14;31.96
69239;BME280;56349;51.816;-0.026;2023-06-22T03:57:12;101218.95;;;28.20;31.83
69239;BME280;56349;51.816;-0.026;2023-06-22T03:59:38;101215.86;;;28.21;31.73
69239;BME280;56349;51.816;-0.026;2023-06-22T04:02:04;101215.69;;;28.19;31.69
69239;BME280;56349;51.816;-0.026;2023-06-22T04:04:30;101216.12;;;28.16;31.66
69239;BME280;56349;51.816;-0.026;2023-06-22T04:06:56;101214.49;;;28.35;31.65
69239;BME280;56349;51.816;-0.026;2023-06-22T04:09:22;101208.41;;;27.79;31.67
69239;BME280;56349;51.816;-0.026;2023-06-22T04:11:48;101210.42;;;28.22;31.70
69239;BME280;56349;51.816;-0.026;2023-06-22T04:14:14;101212.81;;;28.16;31.75
69239;BME280;56349;51.816;-0.026;2023-06-22T04:16:40;101216.52;;;28.08;31.82
69239;BME280;56349;51.816;-0.026;2023-06-22T04:19:06;101220.44;;;27.78;31.87
69239;BME280;56349;51.816;-0.026;2023-06-22T04:21:32;101222.31;;;27.94;31.93
69239;BME280;56349;51.816;-0.026;2023-06-22T04:23:58;101224.06;;;27.86;31.99
69239;BME280;56349;51.816;-0.026;2023-06-22T04:26:24;101226.95;;;27.80;32.04
69239;BME280;56349;51.816;-0.026;2023-06-22T04:28:50;101225.38;;;27.74;32.12
69239;BME280;56349;51.816;-0.026;2023-06-22T04:31:17;101227.49;;;27.68;32.19
69239;BME280;56349;51.816;-0.026;2023-06-22T04:33:41;101228.23;;;27.62;32.24
69239;BME280;56349;51.816;-0.026;2023-06-22T04:36:07;101232.30;;;27.56;32.31
69239;BME280;56349;51.816;-0.026;2023-06-22T04:38:33;101236.07;;;27.52;32.36
69239;BME280;56349;51.816;-0.026;2023-06-22T04:40:59;101237.53;;;27.47;32.42
69239;BME280;56349;51.816;-0.026;2023-06-22T04:43:26;101233.31;;;27.67;32.48
69239;BME280;56349;51.816;-0.026;2023-06-22T04:45:52;101232.48;;;27.62;32.53
69239;BME280;56349;51.816;-0.026;2023-06-22T04:48:18;101229.85;;;27.31;32.59
69239;BME280;56349;51.816;-0.026;2023-06-22T04:50:44;101227.55;;;27.26;32.65
69239;BME280;56349;51.816;-0.026;2023-06-22T04:53:10;101225.42;;;27.47;32.72
69239;BME280;56349;51.816;-0.026;2023-06-22T04:55:36;101226.39;;;27.16;32.76
69239;BME280;56349;51.816;-0.026;2023-06-22T04:58:02;101227.99;;;27.41;32.79
69239;BME280;56349;51.816;-0.026;2023-06-22T05:00:28;101225.46;;;27.61;32.81
69239;BME280;56349;51.816;-0.026;2023-06-22T05:02:54;101227.81;;;27.09;32.83
69239;BME280;56349;51.816;-0.026;2023-06-22T05:05:20;101224.76;;;27.07;32.90
69239;BME280;56349;51.816;-0.026;2023-06-22T05:07:47;101226.20;;;27.03;32.95
69239;BME280;56349;51.816;-0.026;2023-06-22T05:10:12;101225.64;;;27.26;33.00
69239;BME280;56349;51.816;-0.026;2023-06-22T05:12:38;101230.93;;;26.98;33.03
69239;BME280;56349;51.816;-0.026;2023-06-22T05:15:04;101230.40;;;26.96;33.03
69239;BME280;56349;51.816;-0.026;2023-06-22T05:17:29;101232.20;;;27.23;33.02
69239;BME280;56349;51.816;-0.026;2023-06-22T05:19:55;101229.85;;;26.95;33.03
69239;BME280;56349;51.816;-0.026;2023-06-22T05:22:20;101232.52;;;26.96;33.00
69239;BME280;56349;51.816;-0.026;2023-06-22T05:24:47;101233.45;;;26.94;32.99
69239;BME280;56349;51.816;-0.026;2023-06-22T05:27:12;101235.21;;;26.93;33.02
69239;BME280;56349;51.816;-0.026;2023-06-22T05:29:37;101238.43;;;26.90;33.05
69239;BME280;56349;51.816;-0.026;2023-06-22T05:32:03;101245.26;;;26.89;33.06
69239;BME280;56349;51.816;-0.026;2023-06-22T05:34:28;101249.28;;;27.19;33.06
69239;BME280;56349;51.816;-0.026;2023-06-22T05:36:54;101252.91;;;27.17;33.04
69239;BME280;56349;51.816;-0.026;2023-06-22T05:39:20;101256.53;;;26.86;33.08
69239;BME280;56349;51.816;-0.026;2023-06-22T05:41:46;101257.30;;;26.85;33.13
69239;BME280;56349;51.816;-0.026;2023-06-22T05:44:11;101257.30;;;26.83;33.12
69239;BME280;56349;51.816;-0.026;2023-06-22T05:46:40;101261.65;;;26.82;33.10
69239;BME280;56349;51.816;-0.026;2023-06-22T05:49:03;101263.91;;;27.31;33.05
69239;BME280;56349;51.816;-0.026;2023-06-22T05:51:29;101258.31;;;27.31;33.07
69239;BME280;56349;51.816;-0.026;2023-06-22T05:53:55;101254.71;;;27.06;33.11
69239;BME280;56349;51.816;-0.026;2023-06-22T05:56:21;101255.25;;;27.04;33.10
69239;BME280;56349;51.816;-0.026;2023-06-22T05:58:47;101258.41;;;27.02;33.10
69239;BME280;56349;51.816;-0.026;2023-06-22T06:01:13;101260.91;;;27.22;33.16
69239;BME280;56349;51.816;-0.026;2023-06-22T06:03:39;101258.65;;;27.21;33.15
69239;BME280;56349;51.816;-0.026;2023-06-22T06:06:05;101254.98;;;27.21;33.18
69239;BME280;56349;51.816;-0.026;2023-06-22T06:08:31;101254.68;;;27.22;33.17
69239;BME280;56349;51.816;-0.026;2023-06-22T06:10:57;101258.11;;;26.72;33.18
69239;BME280;56349;51.816;-0.026;2023-06-22T06:13:23;101260.51;;;27.19;33.20
69239;BME280;56349;51.816;-0.026;2023-06-22T06:15:49;101260.67;;;26.95;33.20
69239;BME280;56349;51.816;-0.026;2023-06-22T06:18:15;101258.70;;;26.95;33.21
69239;BME280;56349;51.816;-0.026;2023-06-22T06:20:41;101258.52;;;27.17;33.25
69239;BME280;56349;51.816;-0.026;2023-06-22T06:23:07;101256.51;;;26.95;33.22
69239;BME280;56349;51.816;-0.026;2023-06-22T06:25:33;101256.45;;;27.16;33.22
69239;BME280;56349;51.816;-0.026;2023-06-22T06:27:59;101256.12;;;26.92;33.25
69239;BME280;56349;51.816;-0.026;2023-06-22T06:30:25;101255.10;;;27.14;33.25
69239;BME280;56349;51.816;-0.026;2023-06-22T06:32:51;101251.58;;;27.15;33.19
69239;BME280;56349;51.816;-0.026;2023-06-22T06:35:16;101247.42;;;27.16;33.23
69239;BME280;56349;51.816;-0.026;2023-06-22T06:37:43;101248.08;;;27.17;33.38
69239;BME280;56349;51.816;-0.026;2023-06-22T06:40:08;101247.61;;;26.98;33.68
69239;BME280;56349;51.816;-0.026;2023-06-22T06:42:32;101247.59;;;27.07;34.10
69239;BME280;56349;51.816;-0.026;2023-06-22T06:44:58;101252.25;;;27.46;34.32
69239;BME280;56349;51.816;-0.026;2023-06-22T06:47:24;101253.96;;;27.16;34.45
69239;BME280;56349;51.816;-0.026;2023-06-22T06:49:50;101253.32;;;27.40;34.75
69239;BME280;56349;51.816;-0.026;2023-06-22T06:52:16;101252.61;;;27.68;34.66
69239;BME280;56349;51.816;-0.026;2023-06-22T06:54:42;101246.11;;;27.99;34.37
69239;BME280;56349;51.816;-0.026;2023-06-22T06:57:08;101239.33;;;28.09;33.69
69239;BME280;56349;51.816;-0.026;2023-06-22T06:59:34;101241.92;;;28.19;33.26
69239;BME280;56349;51.816;-0.026;2023-06-22T07:02:00;101239.72;;;28.55;33.00
69239;BME280;56349;51.816;-0.026;2023-06-22T07:04:26;101241.64;;;28.89;32.87
69239;BME280;56349;51.816;-0.026;2023-06-22T07:06:52;101241.74;;;28.78;32.46
69239;BME280;56349;51.816;-0.026;2023-06-22T07:09:18;101244.88;;;29.09;32.05
69239;BME280;56349;51.816;-0.026;2023-06-22T07:11:44;101245.79;;;29.39;31.73
69239;BME280;56349;51.816;-0.026;2023-06-22T07:14:10;101244.04;;;29.66;31.44
69239;BME280;56349;51.816;-0.026;2023-06-22T07:16:36;101247.06;;;29.94;31.09
69239;BME280;56349;51.816;-0.026;2023-06-22T07:19:03;101242.34;;;30.19;30.74
69239;BME280;56349;51.816;-0.026;2023-06-22T07:21:27;101241.59;;;29.94;30.41
69239;BME280;56349;51.816;-0.026;2023-06-22T07:23:53;101237.96;;;30.14;30.19
69239;BME280;56349;51.816;-0.026;2023-06-22T07:26:19;101234.50;;;30.35;29.91
69239;BME280;56349;51.816;-0.026;2023-06-22T07:28:45;101234.10;;;30.28;29.69
69239;BME280;56349;51.816;-0.026;2023-06-22T07:31:11;101230.85;;;30.44;29.48
69239;BME280;56349;51.816;-0.026;2023-06-22T07:33:37;101225.66;;;30.87;29.23
69239;BME280;56349;51.816;-0.026;2023-06-22T07:36:04;101229.18;;;30.77;28.98
69239;BME280;56349;51.816;-0.026;2023-06-22T07:38:28;101229.05;;;30.92;28.84
69239;BME280;56349;51.816;-0.026;2023-06-22T07:40:54;101229.31;;;31.32;28.70
69239;BME280;56349;51.816;-0.026;2023-06-22T07:43:20;101229.57;;;31.12;28.75
69239;BME280;56349;51.816;-0.026;2023-06-22T07:45:48;101224.83;;;31.05;28.60
69239;BME280;56349;51.816;-0.026;2023-06-22T07:48:12;101224.05;;;30.84;28.69
69239;BME280;56349;51.816;-0.026;2023-06-22T07:50:38;101220.68;;;30.42;28.82
69239;BME280;56349;51.816;-0.026;2023-06-22T07:53:04;101219.38;;;30.46;28.99
69239;BME280;56349;51.816;-0.026;2023-06-22T07:55:30;101222.31;;;30.73;29.21
69239;BME280;56349;51.816;-0.026;2023-06-22T07:57:56;101220.84;;;30.22;29.30
69239;BME280;56349;51.816;-0.026;2023-06-22T08:00:22;101217.34;;;30.71;29.35
69239;BME280;56349;51.816;-0.026;2023-06-22T08:02:48;101215.33;;;30.31;29.14
69239;BME280;56349;51.816;-0.026;2023-06-22T08:05:14;101212.13;;;30.36;29.01
69239;BME280;56349;51.816;-0.026;2023-06-22T08:07:39;101213.47;;;30.60;28.82
69239;BME280;56349;51.816;-0.026;2023-06-22T08:10:09;101214.22;;;30.41;28.71
69239;BME280;56349;51.816;-0.026;2023-06-22T08:12:31;101211.24;;;30.48;28.57
69239;BME280;56349;51.816;-0.026;2023-06-22T08:14:57;101213.56;;;31.02;28.49
69239;BME280;56349;51.816;-0.026;2023-06-22T08:17:23;101211.73;;;30.56;28.31
69239;BME280;56349;51.816;-0.026;2023-06-22T08:19:48;101212.74;;;30.80;28.28
69239;BME280;56349;51.816;-0.026;2023-06-22T08:22:15;101209.98;;;30.59;28.22
69239;BME280;56349;51.816;-0.026;2023-06-22T08:24:40;101210.27;;;30.65;28.25
69239;BME280;56349;51.816;-0.026;2023-06-22T08:27:07;101209.28;;;30.70;28.20
69239;BME280;56349;51.816;-0.026;2023-06-22T08:29:32;101211.36;;;30.77;28.21
69239;BME280;56349;51.816;-0.026;2023-06-22T08:31:58;101209.95;;;30.81;28.20
69239;BME280;56349;51.816;-0.026;2023-06-22T08:34:24;101210.42;;;30.94;28.11
69239;BME280;56349;51.816;-0.026;2023-06-22T08:36:50;101212.45;;;31.04;28.05
69239;BME280;56349;51.816;-0.026;2023-06-22T08:39:16;101214.48;;;31.15;27.89
69239;BME280;56349;51.816;-0.026;2023-06-22T08:41:42;101216.36;;;31.26;27.78
69239;BME280;56349;51.816;-0.026;2023-06-22T08:44:08;101208.16;;;31.39;27.58
69239;BME280;56349;51.816;-0.026;2023-06-22T08:46:34;101208.62;;;31.38;27.34
69239;BME280;56349;51.816;-0.026;2023-06-22T08:49:00;101207.88;;;31.25;27.31
69239;BME280;56349;51.816;-0.026;2023-06-22T08:51:25;101205.78;;;31.02;27.44
69239;BME280;56349;51.816;-0.026;2023-06-22T08:53:51;101206.61;;;30.73;27.66
69239;BME280;56349;51.816;-0.026;2023-06-22T08:56:17;101204.56;;;30.57;27.55
69239;BME280;56349;51.816;-0.026;2023-06-22T08:58:52;101202.07;;;30.47;27.95
69239;BME280;56349;51.816;-0.026;2023-06-22T09:01:08;101202.82;;;30.47;28.45
69239;BME280;56349;51.816;-0.026;2023-06-22T09:03:34;101204.17;;;30.08;28.72
69239;BME280;56349;51.816;-0.026;2023-06-22T09:06:00;101203.88;;;30.22;28.90
69239;BME280;56349;51.816;-0.026;2023-06-22T09:08:26;101202.90;;;29.98;28.96
69239;BME280;56349;51.816;-0.026;2023-06-22T09:10:53;101204.32;;;30.04;28.95
69239;BME280;56349;51.816;-0.026;2023-06-22T09:13:17;101208.60;;;30.14;28.85
69239;BME280;56349;51.816;-0.026;2023-06-22T09:15:43;101209.72;;;30.28;28.75
69239;BME280;56349;51.816;-0.026;2023-06-22T09:18:10;101211.18;;;30.41;28.57
69239;BME280;56349;51.816;-0.026;2023-06-22T09:20:35;101210.62;;;30.30;28.47
69239;BME280;56349;51.816;-0.026;2023-06-22T09:23:01;101211.67;;;30.72;28.36
69239;BME280;56349;51.816;-0.026;2023-06-22T09:25:27;101212.88;;;30.90;28.10
69239;BME280;56349;51.816;-0.026;2023-06-22T09:27:53;101214.40;;;31.06;28.01
69239;BME280;56349;51.816;-0.026;2023-06-22T09:30:19;101216.29;;;30.71;27.85
69239;BME280;56349;51.816;-0.026;2023-06-22T09:32:44;101212.90;;;30.84;27.72
69239;BME280;56349;51.816;-0.026;2023-06-22T09:35:10;101210.72;;;31.00;27.54
69239;BME280;56349;51.816;-0.026;2023-06-22T09:37:36;101213.90;;;31.10;27.46
69239;BME280;56349;51.816;-0.026;2023-06-22T09:40:03;101211.85;;;31.23;27.31
69239;BME280;56349;51.816;-0.026;2023-06-22T09:42:28;101210.29;;;31.37;27.16
69239;BME280;56349;51.816;-0.026;2023-06-22T09:44:53;101213.67;;;31.48;26.96
69239;BME280;56349;51.816;-0.026;2023-06-22T09:47:19;101216.36;;;31.55;26.89
69239;BME280;56349;51.816;-0.026;2023-06-22T09:49:45;101220.35;;;31.45;26.85
69239;BME280;56349;51.816;-0.026;2023-06-22T09:52:11;101219.36;;;31.79;26.81
69239;BME280;56349;51.816;-0.026;2023-06-22T09:54:37;101222.89;;;31.84;26.78
69239;BME280;56349;51.816;-0.026;2023-06-22T09:57:04;101219.14;;;31.68;26.65
69239;BME280;56349;51.816;-0.026;2023-06-22T09:59:29;101220.94;;;31.75;26.59
69239;BME280;56349;51.816;-0.026;2023-06-22T10:01:54;101223.30;;;32.06;26.50
69239;BME280;56349;51.816;-0.026;2023-06-22T10:04:20;101225.14;;;31.64;26.43
69239;BME280;56349;51.816;-0.026;2023-06-22T10:06:46;101223.60;;;31.95;26.23
69239;BME280;56349;51.816;-0.026;2023-06-22T10:09:12;101223.70;;;31.70;26.14
69239;BME280;56349;51.816;-0.026;2023-06-22T10:11:38;101223.79;;;32.01;26.09
69239;BME280;56349;51.816;-0.026;2023-06-22T10:14:04;101226.74;;;31.71;26.03
69239;BME280;56349;51.816;-0.026;2023-06-22T10:16:31;101223.66;;;32.05;26.02
69239;BME280;56349;51.816;-0.026;2023-06-22T10:18:56;101219.91;;;31.60;26.10
69239;BME280;56349;51.816;-0.026;2023-06-22T10:21:22;101217.55;;;31.57;26.18
69239;BME280;56349;51.816;-0.026;2023-06-22T10:23:48;101221.72;;;31.32;26.34
69239;BME280;56349;51.816;-0.026;2023-06-22T10:26:14;101221.77;;;31.28;26.45
69239;BME280;56349;51.816;-0.026;2023-06-22T10:28:40;101219.65;;;31.06;26.56
69239;BME280;56349;51.816;-0.026;2023-06-22T10:31:06;101217.71;;;30.95;26.79
69239;BME280;56349;51.816;-0.026;2023-06-22T10:33:32;101215.01;;;31.19;26.93
69239;BME280;56349;51.816;-0.026;2023-06-22T10:35:58;101218.52;;;30.75;26.98
69239;BME280;56349;51.816;-0.026;2023-06-22T10:38:24;101217.60;;;31.27;26.50
69239;BME280;56349;51.816;-0.026;2023-06-22T10:40:50;101213.83;;;31.32;26.28
69239;BME280;56349;51.816;-0.026;2023-06-22T10:43:16;101213.50;;;30.91;26.19
69239;BME280;56349;51.816;-0.026;2023-06-22T10:45:42;101212.42;;;31.27;26.20
69239;BME280;56349;51.816;-0.026;2023-06-22T10:48:07;101215.52;;;31.21;26.16
69239;BME280;56349;51.816;-0.026;2023-06-22T10:50:33;101215.07;;;31.33;26.17
69239;BME280;56349;51.816;-0.026;2023-06-22T10:53:00;101211.90;;;31.48;26.06
69239;BME280;56349;51.816;-0.026;2023-06-22T10:55:26;101210.20;;;31.45;25.86
69239;BME280;56349;51.816;-0.026;2023-06-22T10:57:51;101205.63;;;31.85;25.57
69239;BME280;56349;51.816;-0.026;2023-06-22T11:00:18;101204.49;;;31.77;25.31
69239;BME280;56349;51.816;-0.026;2023-06-22T11:02:43;101206.19;;;31.92;25.30
69239;BME280;56349;51.816;-0.026;2023-06-22T11:05:08;101201.60;;;32.00;25.27
69239;BME280;56349;51.816;-0.026;2023-06-22T11:07:33;101202.25;;;32.07;25.27
69239;BME280;56349;51.816;-0.026;2023-06-22T11:09:59;101204.42;;;31.90;25.26
69239;BME280;56349;51.816;-0.026;2023-06-22T11:12:25;101206.56;;;32.47;25.30
69239;BME280;56349;51.816;-0.026;2023-06-22T11:14:51;101203.79;;;32.05;25.24
69239;BME280;56349;51.816;-0.026;2023-06-22T11:17:17;101200.98;;;32.14;25.21
69239;BME280;56349;51.816;-0.026;2023-06-22T11:19:44;101203.84;;;32.22;25.20
69239;BME280;56349;51.816;-0.026;2023-06-22T11:22:08;101201.30;;;32.55;25.12
69239;BME280;56349;51.816;-0.026;2023-06-22T11:24:35;101198.22;;;32.35;25.07
69239;BME280;56349;51.816;-0.026;2023-06-22T11:27:00;101201.82;;;32.39;25.05
69239;BME280;56349;51.816;-0.026;2023-06-22T11:29:27;101202.84;;;32.45;25.08
69239;BME280;56349;51.816;-0.026;2023-06-22T11:31:53;101201.72;;;32.50;25.09
69239;BME280;56349;51.816;-0.026;2023-06-22T11:34:19;101198.38;;;32.60;24.97
69239;BME280;56349;51.816;-0.026;2023-06-22T11:36:45;101195.61;;;32.63;24.90
69239;BME280;56349;51.816;-0.026;2023-06-22T11:39:11;101197.82;;;32.59;24.81
69239;BME280;56349;51.816;-0.026;2023-06-22T11:41:37;101197.74;;;32.42;24.79
69239;BME280;56349;51.816;-0.026;2023-06-22T11:44:03;101196.82;;;32.15;24.90
69239;BME280;56349;51.816;-0.026;2023-06-22T11:46:29;101195.17;;;32.30;25.06
69239;BME280;56349;51.816;-0.026;2023-06-22T11:48:55;101200.81;;;31.96;25.27
69239;BME280;56349;51.816;-0.026;2023-06-22T11:51:21;101192.22;;;31.72;25.45
69239;BME280;56349;51.816;-0.026;2023-06-22T11:53:47;101190.37;;;31.53;25.58
69239;BME280;56349;51.816;-0.026;2023-06-22T11:56:13;101185.76;;;31.44;25.52
69239;BME280;56349;51.816;-0.026;2023-06-22T11:58:39;101185.06;;;31.46;25.03
69239;BME280;56349;51.816;-0.026;2023-06-22T12:01:05;101180.80;;;31.49;25.12
69239;BME280;56349;51.816;-0.026;2023-06-22T12:03:31;101173.72;;;31.52;25.10
69239;BME280;56349;51.816;-0.026;2023-06-22T12:05:57;101177.25;;;31.81;25.11
69239;BME280;56349;51.816;-0.026;2023-06-22T12:08:22;101180.54;;;31.66;25.21
69239;BME280;56349;51.816;-0.026;2023-06-22T12:10:49;101175.43;;;31.77;25.30
69239;BME280;56349;51.816;-0.026;2023-06-22T12:13:13;101175.15;;;31.90;25.28
69239;BME280;56349;51.816;-0.026;2023-06-22T12:15:38;101175.61;;;32.02;25.22
69239;BME280;56349;51.816;-0.026;2023-06-22T12:18:04;101171.72;;;31.90;25.17
69239;BME280;56349;51.816;-0.026;2023-06-22T12:20:30;101171.83;;;32.23;25.10
69239;BME280;56349;51.816;-0.026;2023-06-22T12:22:57;101171.22;;;32.34;25.00
69239;BME280;56349;51.816;-0.026;2023-06-22T12:25:22;101174.22;;;32.24;24.87
69239;BME280;56349;51.816;-0.026;2023-06-22T12:27:48;101177.03;;;32.34;24.70
69239;BME280;56349;51.816;-0.026;2023-06-22T12:30:15;101171.94;;;32.44;24.57
69239;BME280;56349;51.816;-0.026;2023-06-22T12:32:40;101165.75;;;32.27;24.53